sensor_id;sensor_type;location;lat;lon;timestamp;temperature;humidity
48454;DHT22;34261;55.678;12.464;2022-07-04T00:01:33;17.50;99.90
48454;DHT22;34261;55.678;12.464;2022-07-04T00:03:59;17.50;99.90
48454;DHT22;34261;55.678;12.464;2022-07-04T00:06:25;17.50;99.90
48454;DHT22;34261;55.678;12.464;2022-07-04T00:08:50;17.50;99.90
48454;DHT22;34261;55.678;12.464;2022-07-04T00:11:16;17.40;99.90
48454;DHT22;34261;55.678;12.464;2022-07-04T00:13:41;17.40;99.90
48454;DHT22;34261;55.678;12.464;2022-07-04T00:16:07;17.30;99.90
48454;DHT22;34261;55.678;12.464;2022-07-04T00:18:33;17.30;99.90
48454;DHT22;34261;55.678;12.464;2022-07-04T00:20:58;17.30;99.90
48454;DHT22;34261;55.678;12.464;2022-07-04T00:23:24;17.20;99.90
48454;DHT22;34261;55.678;12.464;2022-07-04T00:25:49;17.20;99.90
48454;DHT22;34261;55.678;12.464;2022-07-04T00:28:15;17.20;99.90
48454;DHT22;34261;55.678;12.464;2022-07-04T00:30:41;17.10;99.90
48454;DHT22;34261;55.678;12.464;2022-07-04T00:33:10;17.10;99.90
48454;DHT22;34261;55.678;12.464;2022-07-04T00:35:36;17.10;99.90
48454;DHT22;34261;55.678;12.464;2022-07-04T00:38:02;17.00;99.90
48454;DHT22;34261;55.678;12.464;2022-07-04T00:40:27;17.00;99.90
48454;DHT22;34261;55.678;12.464;2022-07-04T00:42:53;17.00;99.90
48454;DHT22;34261;55.678;12.464;2022-07-04T00:45:19;17.00;99.90
48454;DHT22;34261;55.678;12.464;2022-07-04T00:47:45;17.00;99.90
48454;DHT22;34261;55.678;12.464;2022-07-04T00:50:11;17.00;99.90
48454;DHT22;34261;55.678;12.464;2022-07-04T00:52:36;16.90;99.90
48454;DHT22;34261;55.678;12.464;2022-07-04T00:55:03;16.90;99.90
48454;DHT22;34261;55.678;12.464;2022-07-04T00:57:29;16.90;99.90
48454;DHT22;34261;55.678;12.464;2022-07-04T00:59:55;16.90;99.90
48454;DHT22;34261;55.678;12.464;2022-07-04T01:02:20;16.90;99.90
48454;DHT22;34261;55.678;12.464;2022-07-04T01:04:46;16.90;99.90
48454;DHT22;34261;55.678;12.464;2022-07-04T01:07:12;16.80;99.90
48454;DHT22;34261;55.678;12.464;2022-07-04T01:09:38;16.80;99.90
48454;DHT22;34261;55.678;12.464;2022-07-04T01:12:04;16.80;99.90
48454;DHT22;34261;55.678;12.464;2022-07-04T01:14:30;16.80;99.90
48454;DHT22;34261;55.678;12.464;2022-07-04T01:16:56;16.70;99.90
48454;DHT22;34261;55.678;12.464;2022-07-04T01:19:21;16.70;99.90
48454;DHT22;34261;55.678;12.464;2022-07-04T01:21:47;16.60;99.90
48454;DHT22;34261;55.678;12.464;2022-07-04T01:24:13;16.70;99.90
48454;DHT22;34261;55.678;12.464;2022-07-04T01:26:38;16.70;99.90
48454;DHT22;34261;55.678;12.464;2022-07-04T01:29:04;16.70;99.90
48454;DHT22;34261;55.678;12.464;2022-07-04T01:31:30;16.70;99.90
48454;DHT22;34261;55.678;12.464;2022-07-04T01:33:55;16.70;99.90
48454;DHT22;34261;55.678;12.464;2022-07-04T01:36:21;16.60;99.90
48454;DHT22;34261;55.678;12.464;2022-07-04T01:38:46;16.60;99.90
48454;DHT22;34261;55.678;12.464;2022-07-04T01:41:12;16.50;99.90
48454;DHT22;34261;55.678;12.464;2022-07-04T01:43:37;16.50;99.90
48454;DHT22;34261;55.678;12.464;2022-07-04T01:46:03;16.50;99.90
48454;DHT22;34261;55.678;12.464;2022-07-04T01:48:29;16.40;99.90
48454;DHT22;34261;55.678;12.464;2022-07-04T01:50:54;16.40;99.90
48454;DHT22;34261;55.678;12.464;2022-07-04T01:53:20;16.40;99.90
48454;DHT22;34261;55.678;12.464;2022-07-04T01:55:45;16.40;99.90
48454;DHT22;34261;55.678;12.464;2022-07-04T01:58:11;16.40;99.90
48454;DHT22;34261;55.678;12.464;2022-07-04T02:00:37;16.40;99.90
48454;DHT22;34261;55.678;12.464;2022-07-04T02:03:21;16.30;99.90
48454;DHT22;34261;55.678;12.464;2022-07-04T02:05:47;16.30;99.90
48454;DHT22;34261;55.678;12.464;2022-07-04T02:08:12;16.30;99.90
48454;DHT22;34261;55.678;12.464;2022-07-04T02:10:38;16.20;99.90
48454;DHT22;34261;55.678;12.464;2022-07-04T02:13:03;16.30;99.90
48454;DHT22;34261;55.678;12.464;2022-07-04T02:15:38;16.20;99.90
48454;DHT22;34261;55.678;12.464;2022-07-04T02:18:05;16.20;99.90
48454;DHT22;34261;55.678;12.464;2022-07-04T02:20:33;16.20;99.90
48454;DHT22;34261;55.678;12.464;2022-07-04T02:22:59;16.20;99.90
48454;DHT22;34261;55.678;12.464;2022-07-04T02:25:25;16.20;99.90
48454;DHT22;34261;55.678;12.464;2022-07-04T02:27:51;16.20;99.90
48454;DHT22;34261;55.678;12.464;2022-07-04T02:30:17;16.20;99.90
48454;DHT22;34261;55.678;12.464;2022-07-04T02:32:44;16.20;99.90
48454;DHT22;34261;55.678;12.464;2022-07-04T02:35:10;16.20;99.90
48454;DHT22;34261;55.678;12.464;2022-07-04T02:37:37;16.20;99.90
48454;DHT22;34261;55.678;12.464;2022-07-04T02:40:04;16.20;99.90
48454;DHT22;34261;55.678;12.464;2022-07-04T02:42:31;16.20;99.90
48454;DHT22;34261;55.678;12.464;2022-07-04T02:44:57;16.20;99.90
48454;DHT22;34261;55.678;12.464;2022-07-04T02:47:23;16.20;99.90
48454;DHT22;34261;55.678;12.464;2022-07-04T02:49:48;16.20;99.90
48454;DHT22;34261;55.678;12.464;2022-07-04T02:52:14;16.20;99.90
48454;DHT22;34261;55.678;12.464;2022-07-04T02:54:40;16.20;99.90
48454;DHT22;34261;55.678;12.464;2022-07-04T02:57:07;16.10;99.90
48454;DHT22;34261;55.678;12.464;2022-07-04T02:59:33;16.20;99.90
48454;DHT22;34261;55.678;12.464;2022-07-04T03:01:59;16.20;99.90
48454;DHT22;34261;55.678;12.464;2022-07-04T03:04:24;16.10;99.90
48454;DHT22;34261;55.678;12.464;2022-07-04T03:06:50;16.10;99.90
48454;DHT22;34261;55.678;12.464;2022-07-04T03:09:16;16.10;99.90
48454;DHT22;34261;55.678;12.464;2022-07-04T03:11:43;16.10;99.90
48454;DHT22;34261;55.678;12.464;2022-07-04T03:14:09;16.10;99.90
48454;DHT22;34261;55.678;12.464;2022-07-04T03:16:34;16.10;99.90
48454;DHT22;34261;55.678;12.464;2022-07-04T03:19:00;16.10;99.90
48454;DHT22;34261;55.678;12.464;2022-07-04T03:21:25;16.10;99.90
48454;DHT22;34261;55.678;12.464;2022-07-04T03:23:51;16.10;99.90
48454;DHT22;34261;55.678;12.464;2022-07-04T03:26:32;16.10;99.90
48454;DHT22;34261;55.678;12.464;2022-07-04T03:28:59;16.10;99.90
48454;DHT22;34261;55.678;12.464;2022-07-04T03:31:25;16.10;99.90
48454;DHT22;34261;55.678;12.464;2022-07-04T03:33:52;16.10;99.90
48454;DHT22;34261;55.678;12.464;2022-07-04T03:36:18;16.10;99.90
48454;DHT22;34261;55.678;12.464;2022-07-04T03:38:44;16.20;99.90
48454;DHT22;34261;55.678;12.464;2022-07-04T03:41:10;16.10;99.90
48454;DHT22;34261;55.678;12.464;2022-07-04T03:43:36;16.20;99.90
48454;DHT22;34261;55.678;12.464;2022-07-04T03:46:01;16.20;99.90
48454;DHT22;34261;55.678;12.464;2022-07-04T03:48:27;16.30;99.90
48454;DHT22;34261;55.678;12.464;2022-07-04T03:50:53;16.30;99.90
48454;DHT22;34261;55.678;12.464;2022-07-04T03:53:18;16.20;99.90
48454;DHT22;34261;55.678;12.464;2022-07-04T03:55:45;16.30;99.90
48454;DHT22;34261;55.678;12.464;2022-07-04T03:58:11;16.30;99.90
48454;DHT22;34261;55.678;12.464;2022-07-04T04:00:37;16.20;99.90
48454;DHT22;34261;55.678;12.464;2022-07-04T04:03:02;16.30;99.90
48454;DHT22;34261;55.678;12.464;2022-07-04T04:05:48;16.30;99.90
48454;DHT22;34261;55.678;12.464;2022-07-04T04:08:13;16.30;99.90
48454;DHT22;34261;55.678;12.464;2022-07-04T04:10:39;16.40;99.90
48454;DHT22;34261;55.678;12.464;2022-07-04T04:13:05;16.40;99.90
48454;DHT22;34261;55.678;12.464;2022-07-04T04:15:30;16.40;99.90
48454;DHT22;34261;55.678;12.464;2022-07-04T04:17:56;16.50;99.90
48454;DHT22;34261;55.678;12.464;2022-07-04T04:20:21;16.60;99.90
48454;DHT22;34261;55.678;12.464;2022-07-04T04:22:47;16.60;99.90
48454;DHT22;34261;55.678;12.464;2022-07-04T04:25:12;16.60;99.90
48454;DHT22;34261;55.678;12.464;2022-07-04T04:27:38;16.60;99.90
48454;DHT22;34261;55.678;12.464;2022-07-04T04:30:04;16.70;99.90
48454;DHT22;34261;55.678;12.464;2022-07-04T04:32:30;16.70;99.90
48454;DHT22;34261;55.678;12.464;2022-07-04T04:34:55;16.70;99.90
48454;DHT22;34261;55.678;12.464;2022-07-04T04:37:22;16.90;99.90
48454;DHT22;34261;55.678;12.464;2022-07-04T04:39:48;16.90;99.90
48454;DHT22;34261;55.678;12.464;2022-07-04T04:42:13;16.90;99.90
48454;DHT22;34261;55.678;12.464;2022-07-04T04:44:39;17.10;99.90
48454;DHT22;34261;55.678;12.464;2022-07-04T04:47:04;17.10;99.90
48454;DHT22;34261;55.678;12.464;2022-07-04T04:49:30;17.10;99.90
48454;DHT22;34261;55.678;12.464;2022-07-04T04:51:56;17.20;99.90
48454;DHT22;34261;55.678;12.464;2022-07-04T04:54:21;17.30;99.90
48454;DHT22;34261;55.678;12.464;2022-07-04T04:56:47;17.30;99.90
48454;DHT22;34261;55.678;12.464;2022-07-04T04:59:12;17.30;99.90
48454;DHT22;34261;55.678;12.464;2022-07-04T05:01:38;17.40;99.90
48454;DHT22;34261;55.678;12.464;2022-07-04T05:04:04;17.50;99.90
48454;DHT22;34261;55.678;12.464;2022-07-04T05:06:29;17.60;99.90
48454;DHT22;34261;55.678;12.464;2022-07-04T05:08:55;17.70;99.90
48454;DHT22;34261;55.678;12.464;2022-07-04T05:11:20;17.70;99.90
48454;DHT22;34261;55.678;12.464;2022-07-04T05:13:46;17.70;99.90
48454;DHT22;34261;55.678;12.464;2022-07-04T05:16:11;17.80;99.90
48454;DHT22;34261;55.678;12.464;2022-07-04T05:18:37;17.90;99.90
48454;DHT22;34261;55.678;12.464;2022-07-04T05:21:03;17.90;99.90
48454;DHT22;34261;55.678;12.464;2022-07-04T05:23:28;18.00;99.90
48454;DHT22;34261;55.678;12.464;2022-07-04T05:25:54;18.10;99.90
48454;DHT22;34261;55.678;12.464;2022-07-04T05:28:19;18.20;99.90
48454;DHT22;34261;55.678;12.464;2022-07-04T05:30:45;18.30;99.90
48454;DHT22;34261;55.678;12.464;2022-07-04T05:33:11;18.40;99.90
48454;DHT22;34261;55.678;12.464;2022-07-04T05:35:36;18.50;99.90
48454;DHT22;34261;55.678;12.464;2022-07-04T05:38:03;18.50;99.90
48454;DHT22;34261;55.678;12.464;2022-07-04T05:40:29;18.70;99.90
48454;DHT22;34261;55.678;12.464;2022-07-04T05:42:54;18.70;99.90
48454;DHT22;34261;55.678;12.464;2022-07-04T05:45:20;18.60;99.90
48454;DHT22;34261;55.678;12.464;2022-07-04T05:47:47;18.60;99.90
48454;DHT22;34261;55.678;12.464;2022-07-04T05:50:12;18.70;99.90
48454;DHT22;34261;55.678;12.464;2022-07-04T05:52:38;18.90;99.90
48454;DHT22;34261;55.678;12.464;2022-07-04T05:55:04;19.00;99.90
48454;DHT22;34261;55.678;12.464;2022-07-04T05:57:32;19.00;99.90
48454;DHT22;34261;55.678;12.464;2022-07-04T05:59:58;19.00;99.90
48454;DHT22;34261;55.678;12.464;2022-07-04T06:02:27;19.10;99.90
48454;DHT22;34261;55.678;12.464;2022-07-04T06:41:05;19.30;99.90
48454;DHT22;34261;55.678;12.464;2022-07-04T06:43:32;19.50;99.90
48454;DHT22;34261;55.678;12.464;2022-07-04T06:45:58;19.60;99.90
48454;DHT22;34261;55.678;12.464;2022-07-04T06:48:28;19.80;99.90
48454;DHT22;34261;55.678;12.464;2022-07-04T06:50:54;20.00;99.90
48454;DHT22;34261;55.678;12.464;2022-07-04T06:53:22;20.10;99.90
48454;DHT22;34261;55.678;12.464;2022-07-04T06:55:49;20.10;99.90
48454;DHT22;34261;55.678;12.464;2022-07-04T06:58:16;20.00;99.90
48454;DHT22;34261;55.678;12.464;2022-07-04T07:00:44;20.10;99.90
48454;DHT22;34261;55.678;12.464;2022-07-04T07:03:11;20.10;99.90
48454;DHT22;34261;55.678;12.464;2022-07-04T07:05:38;20.10;99.90
48454;DHT22;34261;55.678;12.464;2022-07-04T07:08:06;20.10;99.90
48454;DHT22;34261;55.678;12.464;2022-07-04T07:10:33;20.20;99.90
48454;DHT22;34261;55.678;12.464;2022-07-04T07:13:02;20.40;99.90
48454;DHT22;34261;55.678;12.464;2022-07-04T07:15:29;20.30;99.90
48454;DHT22;34261;55.678;12.464;2022-07-04T07:17:57;20.30;99.90
48454;DHT22;34261;55.678;12.464;2022-07-04T07:20:24;20.30;99.90
48454;DHT22;34261;55.678;12.464;2022-07-04T07:22:51;20.40;99.90
48454;DHT22;34261;55.678;12.464;2022-07-04T07:25:21;20.50;99.90
48454;DHT22;34261;55.678;12.464;2022-07-04T07:28:09;20.60;99.90
48454;DHT22;34261;55.678;12.464;2022-07-04T07:30:39;20.70;99.90
48454;DHT22;34261;55.678;12.464;2022-07-04T07:33:08;20.60;99.90
48454;DHT22;34261;55.678;12.464;2022-07-04T07:35:36;20.60;99.90
48454;DHT22;34261;55.678;12.464;2022-07-04T07:38:04;20.70;99.90
48454;DHT22;34261;55.678;12.464;2022-07-04T07:40:34;20.70;99.90
48454;DHT22;34261;55.678;12.464;2022-07-04T07:43:44;20.90;99.90
48454;DHT22;34261;55.678;12.464;2022-07-04T07:46:12;20.90;99.90
48454;DHT22;34261;55.678;12.464;2022-07-04T07:48:41;20.70;99.90
48454;DHT22;34261;55.678;12.464;2022-07-04T07:51:21;20.90;99.90
48454;DHT22;34261;55.678;12.464;2022-07-04T07:54:00;21.10;99.90
48454;DHT22;34261;55.678;12.464;2022-07-04T07:59:52;20.90;99.30
48454;DHT22;34261;55.678;12.464;2022-07-04T08:02:24;20.90;99.70
48454;DHT22;34261;55.678;12.464;2022-07-04T08:05:22;21.00;99.40
48454;DHT22;34261;55.678;12.464;2022-07-04T14:51:08;20.70;97.80
48454;DHT22;34261;55.678;12.464;2022-07-04T14:53:39;20.70;98.20
48454;DHT22;34261;55.678;12.464;2022-07-04T14:56:07;20.90;97.90
48454;DHT22;34261;55.678;12.464;2022-07-04T14:58:47;21.00;97.40
48454;DHT22;34261;55.678;12.464;2022-07-04T15:01:20;21.00;97.50
48454;DHT22;34261;55.678;12.464;2022-07-04T15:04:14;21.00;97.20
48454;DHT22;34261;55.678;12.464;2022-07-04T15:09:24;20.80;97.60
48454;DHT22;34261;55.678;12.464;2022-07-04T15:12:02;20.80;97.50
48454;DHT22;34261;55.678;12.464;2022-07-04T15:14:40;20.70;97.40
48454;DHT22;34261;55.678;12.464;2022-07-04T15:17:10;20.60;97.50
48454;DHT22;34261;55.678;12.464;2022-07-04T15:19:42;20.50;97.30
48454;DHT22;34261;55.678;12.464;2022-07-04T15:22:31;20.40;98.00
48454;DHT22;34261;55.678;12.464;2022-07-04T15:25:17;20.40;97.70
48454;DHT22;34261;55.678;12.464;2022-07-04T15:27:45;20.40;97.40
48454;DHT22;34261;55.678;12.464;2022-07-04T15:30:12;20.50;96.80
48454;DHT22;34261;55.678;12.464;2022-07-04T15:32:41;20.50;96.20
48454;DHT22;34261;55.678;12.464;2022-07-04T15:35:08;20.60;95.40
48454;DHT22;34261;55.678;12.464;2022-07-04T15:37:39;20.60;94.60
48454;DHT22;34261;55.678;12.464;2022-07-04T15:40:10;20.60;94.90
48454;DHT22;34261;55.678;12.464;2022-07-04T15:42:38;20.80;94.50
48454;DHT22;34261;55.678;12.464;2022-07-04T15:45:08;20.80;94.40
48454;DHT22;34261;55.678;12.464;2022-07-04T15:47:36;20.90;94.10
48454;DHT22;34261;55.678;12.464;2022-07-04T15:50:05;21.00;93.90
48454;DHT22;34261;55.678;12.464;2022-07-04T15:52:37;21.30;94.00
48454;DHT22;34261;55.678;12.464;2022-07-04T17:50:11;21.40;93.90
48454;DHT22;34261;55.678;12.464;2022-07-04T19:15:47;19.90;93.10
48454;DHT22;34261;55.678;12.464;2022-07-04T19:18:13;19.80;93.00
48454;DHT22;34261;55.678;12.464;2022-07-04T19:20:39;19.80;92.90
48454;DHT22;34261;55.678;12.464;2022-07-04T19:23:10;19.80;92.70
48454;DHT22;34261;55.678;12.464;2022-07-04T19:25:37;19.70;92.90
48454;DHT22;34261;55.678;12.464;2022-07-04T19:28:04;19.70;93.20
48454;DHT22;34261;55.678;12.464;2022-07-04T19:30:29;19.60;93.10
48454;DHT22;34261;55.678;12.464;2022-07-04T19:32:55;19.60;93.10
48454;DHT22;34261;55.678;12.464;2022-07-04T19:35:21;19.50;93.40
48454;DHT22;34261;55.678;12.464;2022-07-04T19:37:47;19.50;93.20
48454;DHT22;34261;55.678;12.464;2022-07-04T19:40:13;19.40;93.30
48454;DHT22;34261;55.678;12.464;2022-07-04T19:42:39;19.50;93.50
48454;DHT22;34261;55.678;12.464;2022-07-04T19:45:06;19.40;93.30
48454;DHT22;34261;55.678;12.464;2022-07-04T19:47:32;19.40;93.30
48454;DHT22;34261;55.678;12.464;2022-07-04T19:50:00;19.40;93.60
48454;DHT22;34261;55.678;12.464;2022-07-04T19:52:26;19.40;93.60
48454;DHT22;34261;55.678;12.464;2022-07-04T19:54:55;19.30;93.70
48454;DHT22;34261;55.678;12.464;2022-07-04T19:57:21;19.30;93.80
48454;DHT22;34261;55.678;12.464;2022-07-04T19:59:47;19.30;93.70
48454;DHT22;34261;55.678;12.464;2022-07-04T20:02:13;19.20;93.90
48454;DHT22;34261;55.678;12.464;2022-07-04T20:04:39;19.20;94.00
48454;DHT22;34261;55.678;12.464;2022-07-04T20:07:05;19.20;94.00
48454;DHT22;34261;55.678;12.464;2022-07-04T20:09:31;19.20;94.10
48454;DHT22;34261;55.678;12.464;2022-07-04T20:11:58;19.10;94.30
48454;DHT22;34261;55.678;12.464;2022-07-04T20:14:25;19.10;94.30
48454;DHT22;34261;55.678;12.464;2022-07-04T20:16:51;19.10;94.40
48454;DHT22;34261;55.678;12.464;2022-07-04T20:19:19;19.00;94.50
48454;DHT22;34261;55.678;12.464;2022-07-04T20:21:45;19.00;94.70
48454;DHT22;34261;55.678;12.464;2022-07-04T20:24:12;19.00;94.80
48454;DHT22;34261;55.678;12.464;2022-07-04T20:26:38;19.00;94.70
48454;DHT22;34261;55.678;12.464;2022-07-04T20:29:05;18.90;94.90
48454;DHT22;34261;55.678;12.464;2022-07-04T20:31:34;18.90;95.10
48454;DHT22;34261;55.678;12.464;2022-07-04T20:34:01;18.90;95.20
48454;DHT22;34261;55.678;12.464;2022-07-04T20:36:27;18.90;95.30
48454;DHT22;34261;55.678;12.464;2022-07-04T20:38:54;18.80;95.50
48454;DHT22;34261;55.678;12.464;2022-07-04T20:41:27;18.80;95.50
48454;DHT22;34261;55.678;12.464;2022-07-04T20:43:52;18.80;95.70
48454;DHT22;34261;55.678;12.464;2022-07-04T20:46:18;18.70;95.70
48454;DHT22;34261;55.678;12.464;2022-07-04T20:48:43;18.50;96.00
48454;DHT22;34261;55.678;12.464;2022-07-04T20:51:11;18.50;96.00
48454;DHT22;34261;55.678;12.464;2022-07-04T20:53:36;18.40;96.10
48454;DHT22;34261;55.678;12.464;2022-07-04T20:56:02;18.30;96.20
48454;DHT22;34261;55.678;12.464;2022-07-04T20:58:28;18.30;96.10
48454;DHT22;34261;55.678;12.464;2022-07-04T21:00:54;18.20;95.90
48454;DHT22;34261;55.678;12.464;2022-07-04T21:03:19;18.20;95.80
48454;DHT22;34261;55.678;12.464;2022-07-04T21:05:45;18.10;96.10
48454;DHT22;34261;55.678;12.464;2022-07-04T21:08:11;18.10;96.10
48454;DHT22;34261;55.678;12.464;2022-07-04T21:10:36;18.20;96.00
48454;DHT22;34261;55.678;12.464;2022-07-04T21:13:02;18.20;96.20
48454;DHT22;34261;55.678;12.464;2022-07-04T21:15:29;18.20;95.90
48454;DHT22;34261;55.678;12.464;2022-07-04T21:17:55;18.30;95.90
48454;DHT22;34261;55.678;12.464;2022-07-04T21:20:25;18.20;96.00
48454;DHT22;34261;55.678;12.464;2022-07-04T21:22:51;18.20;95.90
48454;DHT22;34261;55.678;12.464;2022-07-04T21:25:17;18.20;95.90
48454;DHT22;34261;55.678;12.464;2022-07-04T21:27:43;18.20;95.90
48454;DHT22;34261;55.678;12.464;2022-07-04T21:30:10;18.20;95.70
48454;DHT22;34261;55.678;12.464;2022-07-04T21:32:36;18.20;95.70
48454;DHT22;34261;55.678;12.464;2022-07-04T21:35:02;18.10;95.40
48454;DHT22;34261;55.678;12.464;2022-07-04T21:37:27;18.10;95.30
48454;DHT22;34261;55.678;12.464;2022-07-04T21:39:54;18.00;94.90
48454;DHT22;34261;55.678;12.464;2022-07-04T21:42:19;18.00;95.20
48454;DHT22;34261;55.678;12.464;2022-07-04T21:44:45;18.00;95.00
48454;DHT22;34261;55.678;12.464;2022-07-04T21:47:10;18.00;95.00
48454;DHT22;34261;55.678;12.464;2022-07-04T21:49:36;18.00;95.30
48454;DHT22;34261;55.678;12.464;2022-07-04T21:52:02;18.00;95.20
48454;DHT22;34261;55.678;12.464;2022-07-04T21:54:29;18.00;95.20
48454;DHT22;34261;55.678;12.464;2022-07-04T21:56:54;18.00;95.50
48454;DHT22;34261;55.678;12.464;2022-07-04T21:59:20;18.00;95.40
48454;DHT22;34261;55.678;12.464;2022-07-04T22:01:46;18.00;95.60
48454;DHT22;34261;55.678;12.464;2022-07-04T22:04:11;18.00;95.80
48454;DHT22;34261;55.678;12.464;2022-07-04T22:06:37;17.90;96.00
48454;DHT22;34261;55.678;12.464;2022-07-04T22:09:03;17.80;96.20
48454;DHT22;34261;55.678;12.464;2022-07-04T22:11:28;17.80;96.60
48454;DHT22;34261;55.678;12.464;2022-07-04T22:13:54;17.80;96.70
48454;DHT22;34261;55.678;12.464;2022-07-04T22:16:20;17.70;96.70
48454;DHT22;34261;55.678;12.464;2022-07-04T22:18:45;17.60;97.00
48454;DHT22;34261;55.678;12.464;2022-07-04T22:21:11;17.60;97.10
48454;DHT22;34261;55.678;12.464;2022-07-04T22:23:37;17.60;97.20
48454;DHT22;34261;55.678;12.464;2022-07-04T22:26:02;17.60;97.20
48454;DHT22;34261;55.678;12.464;2022-07-04T22:28:28;17.50;97.50
48454;DHT22;34261;55.678;12.464;2022-07-04T22:30:54;17.40;97.70
48454;DHT22;34261;55.678;12.464;2022-07-04T22:33:20;17.40;97.90
48454;DHT22;34261;55.678;12.464;2022-07-04T22:35:45;17.30;98.10
48454;DHT22;34261;55.678;12.464;2022-07-04T22:38:11;17.10;98.30
48454;DHT22;34261;55.678;12.464;2022-07-04T22:40:36;17.10;98.50
48454;DHT22;34261;55.678;12.464;2022-07-04T22:43:02;17.00;98.80
48454;DHT22;34261;55.678;12.464;2022-07-04T22:45:28;16.90;99.00
48454;DHT22;34261;55.678;12.464;2022-07-04T22:47:54;16.90;99.30
48454;DHT22;34261;55.678;12.464;2022-07-04T22:50:19;16.80;99.40
48454;DHT22;34261;55.678;12.464;2022-07-04T22:52:45;16.80;99.60
48454;DHT22;34261;55.678;12.464;2022-07-04T22:55:13;16.80;99.70
48454;DHT22;34261;55.678;12.464;2022-07-04T22:57:39;16.70;99.90
48454;DHT22;34261;55.678;12.464;2022-07-04T23:00:22;16.70;99.90
48454;DHT22;34261;55.678;12.464;2022-07-04T23:02:48;16.70;99.90
48454;DHT22;34261;55.678;12.464;2022-07-04T23:05:14;16.60;99.90
48454;DHT22;34261;55.678;12.464;2022-07-04T23:07:40;16.60;99.90
48454;DHT22;34261;55.678;12.464;2022-07-04T23:10:07;16.50;99.90
48454;DHT22;34261;55.678;12.464;2022-07-04T23:12:32;16.50;99.90
48454;DHT22;34261;55.678;12.464;2022-07-04T23:14:58;16.50;99.90
48454;DHT22;34261;55.678;12.464;2022-07-04T23:17:24;16.40;99.90
48454;DHT22;34261;55.678;12.464;2022-07-04T23:19:49;16.40;99.90
48454;DHT22;34261;55.678;12.464;2022-07-04T23:22:15;16.40;99.90
48454;DHT22;34261;55.678;12.464;2022-07-04T23:24:42;16.40;99.90
48454;DHT22;34261;55.678;12.464;2022-07-04T23:27:08;16.30;99.90
48454;DHT22;34261;55.678;12.464;2022-07-04T23:29:33;16.30;99.90
48454;DHT22;34261;55.678;12.464;2022-07-04T23:31:59;16.30;99.90
48454;DHT22;34261;55.678;12.464;2022-07-04T23:34:25;16.30;99.90
48454;DHT22;34261;55.678;12.464;2022-07-04T23:36:51;16.20;99.90
48454;DHT22;34261;55.678;12.464;2022-07-04T23:39:17;16.10;99.90
48454;DHT22;34261;55.678;12.464;2022-07-04T23:41:43;16.10;99.90
48454;DHT22;34261;55.678;12.464;2022-07-04T23:44:08;16.10;99.90
48454;DHT22;34261;55.678;12.464;2022-07-04T23:46:34;16.00;99.90
48454;DHT22;34261;55.678;12.464;2022-07-04T23:49:00;15.90;99.90
48454;DHT22;34261;55.678;12.464;2022-07-04T23:51:25;16.00;99.90
48454;DHT22;34261;55.678;12.464;2022-07-04T23:53:51;16.00;99.90
48454;DHT22;34261;55.678;12.464;2022-07-04T23:56:17;16.00;99.90
48454;DHT22;34261;55.678;12.464;2022-07-04T23:58:42;15.90;99.90
